Time;durP1;ratioP1;P1;durP2;ratioP2;P2;SDS_P1;SDS_P2;PMS_P1;PMS_P2;Temp;Humidity;BMP_temperature;BMP_pressure;BME280_temperature;BME280_humidity;BME280_pressure;Samples;Min_cycle;Max_cycle;Signal;HPM_P1;HPM_P2
2023/03/06 00:00:47;;;;;;;;;;;;;;;1.47;58.39;91822.13;2057892;69;20490;-76
2023/03/06 00:03:13;;;;;;;;;;;;;;;1.48;58.56;91826.38;2058020;69;20445;-77
2023/03/06 00:05:39;;;;;;;;;;;;;;;1.30;58.06;91785.38;2058550;69;20469;-77
2023/03/06 00:08:05;;;;;;;;;;;;;;;1.64;58.29;91828.94;2058789;69;20053;-78
2023/03/06 00:10:32;;;;;;;;;;;;;;;1.55;58.34;91829.63;2058823;69;20057;-77
2023/03/06 00:12:59;;;;;;;;;;;;;;;1.60;58.55;91821.03;2058246;69;20111;-77
2023/03/06 00:15:25;;;;;;;;;;;;;;;1.64;58.66;91826.19;2058190;69;20425;-75
2023/03/06 00:17:51;;;;;;;;;;;;;;;1.81;58.01;91817.09;2057889;69;20057;-77
2023/03/06 00:20:17;;;;;;;;;;;;;;;1.88;57.58;91819.00;2058737;69;20050;-77
2023/03/06 00:22:42;;;;;;;;;;;;;;;1.83;58.31;91811.69;2058731;69;20046;-76
2023/03/06 00:25:11;;;;;;;;;;;;;;;1.94;57.81;91811.19;2058729;69;20057;-78
2023/03/06 00:27:37;;;;;;;;;;;;;;;1.89;57.43;91812.91;2058768;69;20054;-77
2023/03/06 00:30:04;;;;;;;;;;;;;;;2.06;57.43;91817.66;2058372;69;20372;-77
2023/03/06 00:32:30;;;;;;;;;;;;;;;1.97;58.65;91812.78;2058305;69;20065;-76
2023/03/06 00:34:56;;;;;;;;;;;;;;;2.12;59.07;91820.19;2061042;69;20042;-79
2023/03/06 00:37:23;;;;;;;;;;;;;;;2.13;58.16;91811.25;2057119;69;20057;-77
2023/03/06 00:39:50;;;;;;;;;;;;;;;2.04;58.23;91817.50;2058847;69;20078;-75
2023/03/06 00:42:16;;;;;;;;;;;;;;;2.15;57.98;91814.19;2059239;69;20062;-76
2023/03/06 00:44:42;;;;;;;;;;;;;;;1.98;58.44;91811.50;2056308;69;20042;-75
2023/03/06 00:47:10;;;;;;;;;;;;;;;2.14;58.09;91809.94;2060192;69;20061;-76
2023/03/06 00:49:35;;;;;;;;;;;;;;;2.20;58.11;91809.66;2058473;69;20059;-75
2023/03/06 00:52:03;;;;;;;;;;;;;;;2.19;57.77;91808.22;2058431;69;20125;-76
2023/03/06 00:54:28;;;;;;;;;;;;;;;2.28;57.22;91799.19;2059235;69;20050;-76
2023/03/06 00:56:54;;;;;;;;;;;;;;;2.29;56.34;91797.88;2055978;69;20054;-76
2023/03/06 00:59:20;;;;;;;;;;;;;;;2.20;56.69;91793.75;2055796;69;20560;-75
2023/03/06 01:01:45;;;;;;;;;;;;;;;2.06;57.82;91795.44;2054919;69;20053;-76
2023/03/06 01:04:13;;;;;;;;;;;;;;;2.03;57.87;91789.00;2055122;69;20050;-76
2023/03/06 01:06:39;;;;;;;;;;;;;;;2.23;57.18;91789.81;2055876;69;20084;-77
2023/03/06 01:09:05;;;;;;;;;;;;;;;2.34;57.84;91787.78;2055369;69;20071;-76
2023/03/06 01:11:31;;;;;;;;;;;;;;;2.42;57.38;91780.06;2057807;69;20050;-76
2023/03/06 01:13:58;;;;;;;;;;;;;;;2.53;56.73;91782.31;2058683;69;20057;-74
2023/03/06 01:16:26;;;;;;;;;;;;;;;2.40;57.46;91777.16;2058672;69;20145;-76
2023/03/06 01:18:53;;;;;;;;;;;;;;;2.38;58.07;91772.16;2058040;69;20050;-76
2023/03/06 01:21:19;;;;;;;;;;;;;;;2.51;57.12;91774.53;2057503;69;20054;-75
2023/03/06 01:23:46;;;;;;;;;;;;;;;2.46;57.03;91767.22;2058610;69;20146;-76
2023/03/06 01:26:16;;;;;;;;;;;;;;;2.39;57.42;91768.09;2061335;69;20057;-76
2023/03/06 01:28:43;;;;;;;;;;;;;;;2.52;56.94;91773.25;2062863;69;20070;-76
2023/03/06 01:31:12;;;;;;;;;;;;;;;2.49;57.59;91757.75;2064872;69;20073;-76
2023/03/06 01:33:39;;;;;;;;;;;;;;;2.53;56.67;91760.81;2061032;69;20046;-75
2023/03/06 01:36:06;;;;;;;;;;;;;;;2.46;56.68;91753.34;2059427;69;20058;-76
2023/03/06 01:38:32;;;;;;;;;;;;;;;2.50;56.14;91756.41;2061658;69;20046;-76
2023/03/06 01:40:58;;;;;;;;;;;;;;;2.62;55.58;91744.75;2062529;69;20056;-76
2023/03/06 01:43:27;;;;;;;;;;;;;;;2.64;55.31;91742.13;2062063;69;20148;-76
2023/03/06 01:46:22;;;;;;;;;;;;;;;2.76;55.39;91743.00;2061476;69;20046;-76
2023/03/06 01:48:51;;;;;;;;;;;;;;;2.42;54.99;91743.97;2059763;69;20061;-76
2023/03/06 01:51:16;;;;;;;;;;;;;;;2.33;55.60;91739.84;2061164;69;20490;-76
2023/03/06 01:53:43;;;;;;;;;;;;;;;2.42;55.80;91727.31;2061488;69;20133;-76
2023/03/06 01:56:12;;;;;;;;;;;;;;;2.65;54.76;91732.47;2061041;69;20180;-75
2023/03/06 01:58:38;;;;;;;;;;;;;;;2.49;55.07;91729.22;2058334;69;20097;-76
2023/03/06 02:01:07;;;;;;;;;;;;;;;2.39;55.32;91720.88;2061712;69;20500;-76
2023/03/06 02:03:33;;;;;;;;;;;;;;;2.51;55.08;91718.97;2060944;69;20085;-76
2023/03/06 02:05:58;;;;;;;;;;;;;;;2.36;55.42;91719.25;2061603;69;20136;-76
2023/03/06 02:08:25;;;;;;;;;;;;;;;2.52;54.97;91720.47;2061475;69;20046;-76
2023/03/06 02:11:04;;;;;;;;;;;;;;;2.57;54.40;91715.19;2060739;69;20049;-75
2023/03/06 02:13:30;;;;;;;;;;;;;;;2.41;55.50;91707.13;2060885;69;20073;-75
2023/03/06 02:15:56;;;;;;;;;;;;;;;2.47;55.12;91706.84;2060452;69;20120;-75
2023/03/06 02:18:21;;;;;;;;;;;;;;;2.49;54.68;91704.94;2056076;69;20050;-76
2023/03/06 02:20:50;;;;;;;;;;;;;;;2.09;56.54;91710.28;2054842;69;20577;-76
2023/03/06 02:23:16;;;;;;;;;;;;;;;2.30;55.66;91707.69;2054846;69;20121;-74
2023/03/06 02:25:43;;;;;;;;;;;;;;;2.45;54.91;91712.97;2054380;69;20057;-75
2023/03/06 02:28:13;;;;;;;;;;;;;;;2.48;54.99;91700.00;2054631;69;20050;-75
2023/03/06 02:30:40;;;;;;;;;;;;;;;2.32;55.55;91696.72;2057004;69;20053;-75
2023/03/06 02:33:16;;;;;;;;;;;;;;;2.58;54.63;91694.44;2054306;69;20149;-75
2023/03/06 02:36:05;;;;;;;;;;;;;;;2.57;54.78;91698.50;2056406;69;20487;-75
2023/03/06 02:38:34;;;;;;;;;;;;;;;2.34;55.08;91691.34;2056596;69;20441;-75
2023/03/06 02:41:03;;;;;;;;;;;;;;;2.31;54.69;91684.16;2058283;69;20438;-75
2023/03/06 02:43:32;;;;;;;;;;;;;;;2.01;56.09;91672.25;2057596;69;20534;-76
2023/03/06 02:45:59;;;;;;;;;;;;;;;1.92;57.41;91678.50;2054624;69;20495;-76
2023/03/06 02:48:25;;;;;;;;;;;;;;;1.93;57.16;91673.72;2058651;69;20066;-75
2023/03/06 02:50:50;;;;;;;;;;;;;;;1.83;56.67;91681.97;2057889;69;20058;-77
2023/03/06 02:53:17;;;;;;;;;;;;;;;1.88;56.49;91671.91;2058113;69;20058;-76
2023/03/06 02:55:43;;;;;;;;;;;;;;;1.63;57.49;91669.34;2058045;69;20061;-77
2023/03/06 02:58:09;;;;;;;;;;;;;;;1.51;58.38;91660.84;2057788;69;20512;-75
2023/03/06 03:00:35;;;;;;;;;;;;;;;1.73;57.62;91659.75;2057747;69;20065;-76
2023/03/06 03:03:04;;;;;;;;;;;;;;;1.79;57.58;91665.03;2057655;69;20133;-76
2023/03/06 03:05:31;;;;;;;;;;;;;;;1.99;57.00;91652.69;2058087;69;20144;-76
2023/03/06 03:08:05;;;;;;;;;;;;;;;1.96;57.23;91642.00;2054848;69;20049;-75
2023/03/06 03:10:31;;;;;;;;;;;;;;;1.96;57.06;91653.09;2057263;69;20062;-76
2023/03/06 03:12:57;;;;;;;;;;;;;;;2.01;57.02;91647.25;2057510;69;20125;-76
2023/03/06 03:15:23;;;;;;;;;;;;;;;2.04;56.57;91653.72;2057715;69;20455;-76
2023/03/06 03:17:49;;;;;;;;;;;;;;;1.99;55.81;91651.94;2058213;69;20050;-75
2023/03/06 03:20:16;;;;;;;;;;;;;;;2.11;55.71;91647.31;2057381;69;20050;-76
2023/03/06 03:22:42;;;;;;;;;;;;;;;2.14;55.30;91653.72;2057642;69;20137;-76
2023/03/06 03:25:07;;;;;;;;;;;;;;;1.90;56.95;91650.59;2058287;69;20225;-75
2023/03/06 03:27:33;;;;;;;;;;;;;;;1.92;56.22;91636.88;2057788;69;20058;-75
2023/03/06 03:29:59;;;;;;;;;;;;;;;2.07;56.01;91643.50;2057655;69;20502;-75
2023/03/06 03:32:25;;;;;;;;;;;;;;;1.85;55.71;91632.19;2057687;69;20046;-75
2023/03/06 03:34:51;;;;;;;;;;;;;;;1.78;56.11;91631.00;2057769;69;20085;-75
2023/03/06 03:37:17;;;;;;;;;;;;;;;1.83;57.02;91629.25;2058246;69;20138;-75
2023/03/06 03:39:42;;;;;;;;;;;;;;;1.91;55.76;91618.03;2058640;69;20054;-75
2023/03/06 03:42:08;;;;;;;;;;;;;;;1.89;56.19;91621.41;2057953;69;20160;-77
2023/03/06 03:44:35;;;;;;;;;;;;;;;1.78;55.69;91616.38;2058631;69;20050;-77
2023/03/06 03:47:00;;;;;;;;;;;;;;;1.74;55.92;91614.06;2057948;69;20049;-76
2023/03/06 03:49:26;;;;;;;;;;;;;;;1.82;55.38;91615.97;2058960;69;20058;-77
2023/03/06 03:51:52;;;;;;;;;;;;;;;1.80;56.72;91610.28;2059131;69;20558;-76
2023/03/06 03:54:19;;;;;;;;;;;;;;;1.66;56.78;91601.63;2058662;69;20086;-77
2023/03/06 03:56:46;;;;;;;;;;;;;;;1.60;56.87;91590.06;2058697;69;20042;-76
2023/03/06 03:59:18;;;;;;;;;;;;;;;1.61;56.75;91599.88;2055852;69;20110;-76
2023/03/06 04:01:54;;;;;;;;;;;;;;;1.73;55.67;91597.97;2058658;69;20050;-75
2023/03/06 04:04:20;;;;;;;;;;;;;;;1.63;56.42;91592.41;2059509;69;20426;-76
2023/03/06 04:06:47;;;;;;;;;;;;;;;1.58;56.72;91593.41;2059576;69;20046;-76
2023/03/06 04:09:14;;;;;;;;;;;;;;;1.45;57.37;91596.59;2058606;69;20057;-77
2023/03/06 04:11:40;;;;;;;;;;;;;;;1.44;57.38;91592.34;2058237;69;20074;-76
2023/03/06 04:14:08;;;;;;;;;;;;;;;1.32;57.91;91588.66;2058564;69;20115;-77
2023/03/06 04:16:34;;;;;;;;;;;;;;;1.35;57.63;91587.50;2058121;69;20050;-75
2023/03/06 04:18:59;;;;;;;;;;;;;;;1.38;57.58;91578.78;2057678;69;20082;-75
2023/03/06 04:21:25;;;;;;;;;;;;;;;1.28;58.61;91569.66;2057859;69;20053;-74
2023/03/06 04:23:51;;;;;;;;;;;;;;;1.38;56.67;91576.00;2057486;69;20070;-75
2023/03/06 04:26:16;;;;;;;;;;;;;;;1.29;58.07;91567.66;2058357;69;20062;-76
2023/03/06 04:28:42;;;;;;;;;;;;;;;1.25;57.39;91573.63;2058710;69;20445;-75
2023/03/06 04:31:09;;;;;;;;;;;;;;;1.25;57.16;91576.38;2057659;69;20449;-75
2023/03/06 04:33:34;;;;;;;;;;;;;;;1.21;58.03;91574.03;2057554;69;20164;-75
2023/03/06 04:36:00;;;;;;;;;;;;;;;1.22;57.41;91569.22;2058256;69;20088;-74
2023/03/06 04:38:29;;;;;;;;;;;;;;;1.26;57.02;91575.78;2058148;69;20050;-76
2023/03/06 04:40:54;;;;;;;;;;;;;;;1.18;56.98;91563.34;2058508;69;20049;-76
2023/03/06 04:43:20;;;;;;;;;;;;;;;1.16;57.50;91563.22;2058191;69;20827;-76
2023/03/06 04:45:46;;;;;;;;;;;;;;;1.07;58.03;91555.59;2058930;69;20046;-76
2023/03/06 04:48:13;;;;;;;;;;;;;;;1.12;57.88;91543.50;2059027;69;20054;-76
2023/03/06 04:50:39;;;;;;;;;;;;;;;1.23;57.80;91538.13;2058611;69;20137;-74
2023/03/06 04:53:05;;;;;;;;;;;;;;;1.18;57.61;91538.41;2058672;69;20553;-76
2023/03/06 04:55:50;;;;;;;;;;;;;;;0.81;59.72;91538.41;2058504;69;20081;-75
2023/03/06 04:58:16;;;;;;;;;;;;;;;0.96;58.29;91543.75;2058526;69;20147;-76
2023/03/06 05:00:42;;;;;;;;;;;;;;;0.95;58.78;91536.72;2057926;69;20050;-76
2023/03/06 05:03:07;;;;;;;;;;;;;;;1.05;59.01;91544.34;2058668;69;20125;-77
2023/03/06 05:05:33;;;;;;;;;;;;;;;1.05;58.08;91533.25;2058700;69;20058;-77
2023/03/06 05:07:58;;;;;;;;;;;;;;;1.06;57.64;91532.69;2058624;69;20054;-75
2023/03/06 05:10:28;;;;;;;;;;;;;;;1.07;58.18;91534.16;2058168;69;20054;-75
2023/03/06 05:12:59;;;;;;;;;;;;;;;1.02;58.03;91524.06;2058650;69;20046;-75
2023/03/06 05:15:24;;;;;;;;;;;;;;;1.05;57.94;91519.41;2058561;69;20066;-76
2023/03/06 05:17:50;;;;;;;;;;;;;;;0.93;57.43;91519.22;2058478;69;20167;-74
2023/03/06 05:20:15;;;;;;;;;;;;;;;1.15;56.22;91526.44;2058491;69;20481;-77
2023/03/06 05:22:41;;;;;;;;;;;;;;;0.91;58.50;91533.63;2058488;69;20478;-75
2023/03/06 05:25:07;;;;;;;;;;;;;;;0.91;58.15;91528.09;2057919;69;20181;-75
2023/03/06 05:27:36;;;;;;;;;;;;;;;0.86;58.92;91528.38;2058576;69;20495;-73
2023/03/06 05:30:02;;;;;;;;;;;;;;;0.91;57.91;91527.38;2058453;69;20050;-74
2023/03/06 05:32:28;;;;;;;;;;;;;;;1.03;57.71;91525.53;2058409;69;20255;-75
2023/03/06 05:34:53;;;;;;;;;;;;;;;0.93;57.99;91527.53;2058499;69;20050;-76
2023/03/06 05:37:19;;;;;;;;;;;;;;;1.04;57.19;91517.94;2058428;69;20081;-76
2023/03/06 05:39:44;;;;;;;;;;;;;;;1.00;57.00;91510.78;2058499;69;20446;-75
2023/03/06 05:42:10;;;;;;;;;;;;;;;0.76;59.07;91506.16;2058469;69;20140;-74
2023/03/06 05:44:35;;;;;;;;;;;;;;;0.77;58.53;91505.56;2058467;69;20152;-75
2023/03/06 05:47:01;;;;;;;;;;;;;;;0.87;58.17;91505.63;2058387;69;20056;-74
2023/03/06 05:49:30;;;;;;;;;;;;;;;0.86;58.42;91506.94;2058377;69;20050;-75
2023/03/06 05:51:56;;;;;;;;;;;;;;;0.73;58.22;91508.06;2058505;69;20089;-73
2023/03/06 05:54:23;;;;;;;;;;;;;;;0.84;58.63;91515.09;2058430;69;20093;-74
2023/03/06 05:56:49;;;;;;;;;;;;;;;1.04;57.89;91513.13;2058486;69;20046;-74
2023/03/06 05:59:15;;;;;;;;;;;;;;;1.02;56.83;91519.25;2058325;69;20054;-76
2023/03/06 06:01:40;;;;;;;;;;;;;;;0.95;58.10;91516.59;2058012;69;20134;-76
2023/03/06 06:04:07;;;;;;;;;;;;;;;1.05;57.60;91511.81;2058219;69;20046;-76
2023/03/06 06:06:33;;;;;;;;;;;;;;;0.95;57.99;91511.78;2057831;69;20042;-80
2023/03/06 06:08:58;;;;;;;;;;;;;;;1.11;58.22;91512.28;2058155;69;20568;-76
2023/03/06 06:11:23;;;;;;;;;;;;;;;1.14;57.19;91516.66;2058313;69;20046;-74
2023/03/06 06:13:49;;;;;;;;;;;;;;;1.25;57.06;91515.38;2058390;69;20572;-77
2023/03/06 06:16:15;;;;;;;;;;;;;;;1.23;57.73;91518.72;2058453;69;20050;-75
2023/03/06 06:18:41;;;;;;;;;;;;;;;1.18;58.28;91516.97;2058390;69;20461;-76
2023/03/06 06:21:07;;;;;;;;;;;;;;;1.18;58.77;91516.97;2058462;69;20066;-76
2023/03/06 06:23:33;;;;;;;;;;;;;;;1.24;57.67;91519.47;2055196;69;20050;-73
2023/03/06 06:26:03;;;;;;;;;;;;;;;1.15;58.04;91518.13;2058590;69;20097;-74
2023/03/06 06:28:30;;;;;;;;;;;;;;;1.02;59.04;91516.47;2058566;69;20054;-77
2023/03/06 06:30:55;;;;;;;;;;;;;;;1.25;58.81;91515.38;2058488;69;20057;-75
2023/03/06 06:33:21;;;;;;;;;;;;;;;1.31;58.26;91504.75;2058380;69;20115;-77
2023/03/06 06:35:47;;;;;;;;;;;;;;;1.39;58.42;91512.94;2058031;69;20045;-77
2023/03/06 06:38:12;;;;;;;;;;;;;;;1.44;58.10;91509.16;2058320;69;20054;-77
2023/03/06 06:40:38;;;;;;;;;;;;;;;1.39;58.28;91510.16;2058497;69;20478;-77
2023/03/06 06:43:03;;;;;;;;;;;;;;;1.51;58.09;91511.06;2058354;69;20065;-77
2023/03/06 06:45:28;;;;;;;;;;;;;;;1.60;58.51;91509.63;2058317;69;20074;-78
2023/03/06 06:47:54;;;;;;;;;;;;;;;1.61;58.43;91511.09;2057853;69;20132;-77
2023/03/06 06:50:19;;;;;;;;;;;;;;;1.71;57.95;91514.59;2058676;69;20056;-75
2023/03/06 06:52:45;;;;;;;;;;;;;;;1.77;57.99;91513.00;2058258;69;20064;-75
2023/03/06 06:55:11;;;;;;;;;;;;;;;1.45;58.58;91516.88;2058181;69;20066;-76
2023/03/06 06:57:36;;;;;;;;;;;;;;;1.83;57.43;91506.44;2058518;69;20565;-77
2023/03/06 07:00:02;;;;;;;;;;;;;;;1.78;56.83;91516.50;2058452;69;20102;-77
2023/03/06 07:02:28;;;;;;;;;;;;;;;1.66;57.86;91516.34;2057859;69;20045;-75
2023/03/06 07:04:53;;;;;;;;;;;;;;;1.76;58.28;91510.81;2058569;69;20126;-77
2023/03/06 07:07:19;;;;;;;;;;;;;;;2.11;56.80;91510.50;2058294;69;20113;-78
2023/03/06 07:09:44;;;;;;;;;;;;;;;2.02;57.05;91515.50;2058333;69;20056;-77
2023/03/06 07:12:09;;;;;;;;;;;;;;;2.09;57.46;91516.66;2058605;69;20076;-76
2023/03/06 07:14:35;;;;;;;;;;;;;;;2.29;57.28;91520.16;2058469;69;20136;-79
2023/03/06 07:17:01;;;;;;;;;;;;;;;2.17;56.94;91517.25;2058338;69;20082;-76
2023/03/06 07:19:26;;;;;;;;;;;;;;;2.12;56.70;91521.06;2058235;69;20479;-73
2023/03/06 07:21:52;;;;;;;;;;;;;;;2.31;55.94;91516.81;2058231;69;20086;-75
2023/03/06 07:24:17;;;;;;;;;;;;;;;2.18;56.22;91518.72;2058578;69;20081;-73
2023/03/06 07:26:46;;;;;;;;;;;;;;;2.49;56.10;91521.59;2058503;69;20049;-76
2023/03/06 07:29:12;;;;;;;;;;;;;;;2.72;56.13;91525.94;2058385;69;20062;-75
2023/03/06 07:31:38;;;;;;;;;;;;;;;2.46;56.30;91528.31;2058474;69;20491;-74
2023/03/06 07:34:03;;;;;;;;;;;;;;;2.60;55.98;91528.59;2057644;69;20141;-76
2023/03/06 07:36:28;;;;;;;;;;;;;;;3.02;55.00;91528.06;2058276;69;20082;-75
2023/03/06 07:38:54;;;;;;;;;;;;;;;2.83;53.96;91530.16;2058126;69;20050;-73
2023/03/06 07:41:19;;;;;;;;;;;;;;;2.94;55.15;91524.72;2058204;69;20101;-75
2023/03/06 07:43:45;;;;;;;;;;;;;;;2.79;55.07;91533.38;2058237;69;20058;-74
2023/03/06 07:46:13;;;;;;;;;;;;;;;2.89;55.19;91536.16;2057628;69;20078;-74
2023/03/06 07:48:38;;;;;;;;;;;;;;;3.10;54.59;91535.50;2058063;69;20135;-74
2023/03/06 07:51:05;;;;;;;;;;;;;;;3.33;53.81;91537.75;2058196;69;20378;-76
2023/03/06 07:53:31;;;;;;;;;;;;;;;3.14;53.10;91538.56;2058472;69;20065;-73
2023/03/06 07:55:56;;;;;;;;;;;;;;;3.05;53.54;91535.22;2058586;69;20116;-76
2023/03/06 07:58:23;;;;;;;;;;;;;;;3.01;53.63;91543.28;2058123;69;20134;-76
2023/03/06 08:00:48;;;;;;;;;;;;;;;3.20;53.11;91541.75;2058359;69;20429;-75
2023/03/06 08:03:14;;;;;;;;;;;;;;;3.06;53.79;91544.28;2059037;69;20057;-77
2023/03/06 08:05:39;;;;;;;;;;;;;;;3.29;53.13;91541.69;2058818;69;20064;-77
2023/03/06 08:08:05;;;;;;;;;;;;;;;3.13;53.68;91537.81;2058581;69;20486;-75
2023/03/06 08:10:30;;;;;;;;;;;;;;;3.30;54.00;91545.25;2058126;69;20156;-75
2023/03/06 08:12:56;;;;;;;;;;;;;;;3.03;54.11;91540.66;2058289;69;20524;-74
2023/03/06 08:15:21;;;;;;;;;;;;;;;3.33;54.10;91540.53;2058223;69;20173;-73
2023/03/06 08:17:48;;;;;;;;;;;;;;;3.48;53.70;91529.78;2058081;69;20100;-74
2023/03/06 08:20:13;;;;;;;;;;;;;;;3.41;52.65;91546.66;2057681;69;20079;-75
2023/03/06 08:22:39;;;;;;;;;;;;;;;3.10;53.49;91547.34;2058568;69;20050;-75
2023/03/06 08:25:05;;;;;;;;;;;;;;;3.43;53.46;91538.44;2058269;69;20048;-75
2023/03/06 08:27:31;;;;;;;;;;;;;;;4.01;52.01;91540.88;2058616;69;20076;-75
2023/03/06 08:29:58;;;;;;;;;;;;;;;4.24;51.19;91538.22;2058571;69;20038;-73
2023/03/06 08:32:23;;;;;;;;;;;;;;;4.05;51.43;91538.38;2058455;69;20116;-73
2023/03/06 08:34:49;;;;;;;;;;;;;;;4.34;50.22;91538.88;2058835;69;20065;-73
2023/03/06 08:37:14;;;;;;;;;;;;;;;4.07;50.27;91536.44;2058755;69;20152;-75
2023/03/06 08:39:39;;;;;;;;;;;;;;;4.03;51.04;91538.97;2058646;69;20050;-75
2023/03/06 08:42:05;;;;;;;;;;;;;;;4.26;50.73;91535.59;2058731;69;20061;-74
2023/03/06 08:44:30;;;;;;;;;;;;;;;4.46;49.83;91536.16;2058803;69;20069;-74
2023/03/06 08:46:56;;;;;;;;;;;;;;;4.75;48.89;91535.88;2058679;69;20058;-76
2023/03/06 08:49:21;;;;;;;;;;;;;;;4.74;48.40;91536.50;2058484;69;20438;-75
2023/03/06 08:51:47;;;;;;;;;;;;;;;4.27;49.28;91539.81;2058642;69;20056;-74
2023/03/06 08:54:12;;;;;;;;;;;;;;;4.60;48.17;91533.53;2058571;69;20069;-75
2023/03/06 08:56:38;;;;;;;;;;;;;;;4.93;47.47;91541.16;2058123;69;20050;-76
2023/03/06 08:59:04;;;;;;;;;;;;;;;5.09;47.05;91531.72;2058748;69;20088;-76
2023/03/06 09:01:31;;;;;;;;;;;;;;;5.09;47.35;91534.53;2058729;69;20050;-75
2023/03/06 09:03:58;;;;;;;;;;;;;;;5.76;47.35;91534.31;2058618;69;20112;-75
2023/03/06 09:06:24;;;;;;;;;;;;;;;5.92;46.43;91540.16;2058624;69;20560;-76
2023/03/06 09:08:50;;;;;;;;;;;;;;;5.94;46.24;91540.25;2058250;69;20056;-76
2023/03/06 09:11:16;;;;;;;;;;;;;;;5.19;47.25;91528.09;2058682;69;20050;-75
2023/03/06 09:13:42;;;;;;;;;;;;;;;5.13;47.89;91534.03;2058715;69;20060;-74
2023/03/06 09:16:08;;;;;;;;;;;;;;;4.76;48.57;91519.88;2058810;69;20141;-74
2023/03/06 09:18:33;;;;;;;;;;;;;;;5.84;47.27;91529.19;2058540;69;20050;-74
2023/03/06 09:20:59;;;;;;;;;;;;;;;6.47;45.81;91527.28;2058629;69;20057;-76
2023/03/06 09:23:24;;;;;;;;;;;;;;;6.69;45.42;91519.41;2058656;69;20091;-76
2023/03/06 09:25:51;;;;;;;;;;;;;;;6.34;45.90;91513.94;2058614;69;20066;-76
2023/03/06 09:28:16;;;;;;;;;;;;;;;6.95;44.40;91522.91;2058446;69;20049;-76
2023/03/06 09:30:42;;;;;;;;;;;;;;;6.87;44.13;91519.66;2058864;69;20418;-75
2023/03/06 09:33:07;;;;;;;;;;;;;;;7.14;43.67;91519.03;2058370;69;20112;-79
2023/03/06 09:35:33;;;;;;;;;;;;;;;7.29;43.85;91504.47;2058296;69;20100;-76
2023/03/06 09:37:58;;;;;;;;;;;;;;;7.24;43.21;91514.00;2058400;69;20167;-76
2023/03/06 09:40:43;;;;;;;;;;;;;;;6.46;45.24;91522.28;2058796;69;20052;-75
2023/03/06 09:43:18;;;;;;;;;;;;;;;7.22;43.70;91516.69;2058517;69;20054;-78
2023/03/06 09:45:44;;;;;;;;;;;;;;;7.55;44.00;91510.00;2058582;69;20533;-75
2023/03/06 09:48:14;;;;;;;;;;;;;;;7.49;42.90;91515.28;2058518;69;20081;-77
2023/03/06 09:50:43;;;;;;;;;;;;;;;8.44;42.70;91502.66;2058578;69;20054;-77
2023/03/06 09:53:27;;;;;;;;;;;;;;;9.14;40.27;91510.19;2058652;69;20054;-75
2023/03/06 09:56:12;;;;;;;;;;;;;;;9.54;41.06;91515.53;2058476;69;20415;-74
2023/03/06 09:58:42;;;;;;;;;;;;;;;9.31;40.34;91503.25;2058463;69;20054;-76
2023/03/06 10:01:20;;;;;;;;;;;;;;;9.77;39.74;91503.91;2058745;69;20050;-74
2023/03/06 10:03:54;;;;;;;;;;;;;;;10.15;38.00;91504.88;2058463;69;20069;-76
2023/03/06 10:06:25;;;;;;;;;;;;;;;11.20;37.29;91507.06;2058462;69;20042;-75
2023/03/06 10:09:13;;;;;;;;;;;;;;;10.82;37.02;91501.34;2058339;69;20082;-74
2023/03/06 10:11:45;;;;;;;;;;;;;;;10.90;36.36;91501.69;2057381;69;20475;-76
2023/03/06 10:14:17;;;;;;;;;;;;;;;10.18;36.87;91494.44;2058504;69;20221;-75
2023/03/06 10:16:43;;;;;;;;;;;;;;;9.53;37.32;91491.56;2057956;69;20057;-74
2023/03/06 10:19:14;;;;;;;;;;;;;;;10.37;37.01;91490.34;2057856;69;20054;-74
2023/03/06 10:21:58;;;;;;;;;;;;;;;9.80;37.98;91480.16;2058513;69;20196;-76
2023/03/06 10:24:24;;;;;;;;;;;;;;;11.65;36.06;91486.94;2058503;69;20050;-76
2023/03/06 10:27:08;;;;;;;;;;;;;;;10.99;37.08;91482.28;2058587;69;20050;-76
2023/03/06 10:29:53;;;;;;;;;;;;;;;12.20;34.03;91474.88;2058464;69;20558;-76
2023/03/06 10:32:27;;;;;;;;;;;;;;;13.05;33.65;91467.06;2058224;69;20046;-77
2023/03/06 10:34:56;;;;;;;;;;;;;;;13.06;33.30;91457.97;2058471;69;20058;-76
2023/03/06 10:37:21;;;;;;;;;;;;;;;13.75;32.33;91453.00;2058448;69;20143;-77
2023/03/06 10:40:07;;;;;;;;;;;;;;;13.47;33.05;91447.94;2058367;69;20070;-77
2023/03/06 10:42:33;;;;;;;;;;;;;;;11.67;33.54;91452.47;2058254;69;20137;-77
2023/03/06 10:45:08;;;;;;;;;;;;;;;12.97;33.28;91431.56;2058411;69;20062;-77
2023/03/06 10:47:35;;;;;;;;;;;;;;;13.22;31.80;91435.88;2057695;69;20105;-77
2023/03/06 10:50:03;;;;;;;;;;;;;;;13.87;32.36;91439.91;2058367;69;20069;-76
2023/03/06 10:52:31;;;;;;;;;;;;;;;12.95;31.24;91431.47;2056020;69;20112;-76
2023/03/06 10:55:15;;;;;;;;;;;;;;;13.44;30.45;91432.28;2061706;69;20050;-77
2023/03/06 10:57:41;;;;;;;;;;;;;;;15.03;29.81;91433.03;2061697;69;20124;-77
2023/03/06 11:00:27;;;;;;;;;;;;;;;15.34;29.14;91429.50;2061860;69;20577;-77
2023/03/06 11:03:03;;;;;;;;;;;;;;;15.15;28.19;91413.47;2061547;69;20058;-77
2023/03/06 11:05:28;;;;;;;;;;;;;;;17.68;27.05;91406.88;2061736;69;20062;-77
2023/03/06 11:07:55;;;;;;;;;;;;;;;16.44;27.75;91402.72;2061788;69;20512;-77
2023/03/06 11:10:22;;;;;;;;;;;;;;;17.18;25.35;91407.56;2061710;69;20615;-77
2023/03/06 11:13:01;;;;;;;;;;;;;;;18.91;25.18;91397.69;2061828;69;20094;-77
2023/03/06 11:15:28;;;;;;;;;;;;;;;17.28;23.40;91387.84;2061714;69;20437;-77
2023/03/06 11:17:55;;;;;;;;;;;;;;;21.85;22.04;91401.75;2061578;69;20496;-76
2023/03/06 11:20:24;;;;;;;;;;;;;;;20.93;20.76;91398.84;2061179;69;20482;-77
2023/03/06 11:22:53;;;;;;;;;;;;;;;23.09;20.24;91395.56;2061632;69;20429;-74
2023/03/06 11:25:19;;;;;;;;;;;;;;;21.51;20.13;91394.63;2061643;69;20085;-75
2023/03/06 11:27:50;;;;;;;;;;;;;;;23.46;18.98;91386.69;2061627;69;20111;-75
2023/03/06 11:30:17;;;;;;;;;;;;;;;22.83;19.14;91387.81;2061662;69;20075;-75
2023/03/06 11:33:11;;;;;;;;;;;;;;;22.25;20.54;91384.50;2061469;69;20042;-75
2023/03/06 11:35:44;;;;;;;;;;;;;;;20.29;21.27;91372.19;2061151;69;20052;-76
2023/03/06 11:38:13;;;;;;;;;;;;;;;22.89;20.67;91375.59;2061606;69;20057;-76
2023/03/06 11:40:43;;;;;;;;;;;;;;;21.38;21.16;91361.72;2061616;69;20046;-76
2023/03/06 11:43:14;;;;;;;;;;;;;;;22.05;19.92;91362.31;2061640;69;20057;-76
2023/03/06 11:45:50;;;;;;;;;;;;;;;25.14;18.84;91357.59;2061652;69;20045;-75
2023/03/06 11:48:38;;;;;;;;;;;;;;;24.43;17.63;91358.53;2061452;69;20050;-76
2023/03/06 11:51:16;;;;;;;;;;;;;;;25.94;17.04;91353.47;2061584;69;20406;-76
2023/03/06 11:53:42;;;;;;;;;;;;;;;26.44;17.04;91354.03;2061529;69;20060;-74
2023/03/06 11:56:21;;;;;;;;;;;;;;;26.72;16.58;91347.66;2061755;69;20057;-76
2023/03/06 11:58:59;;;;;;;;;;;;;;;27.11;16.65;91338.91;2061478;69;20049;-74
2023/03/06 12:01:30;;;;;;;;;;;;;;;23.08;18.68;91328.16;2061959;69;20098;-74
2023/03/06 12:04:08;;;;;;;;;;;;;;;26.06;17.47;91333.06;2062025;69;20458;-75
2023/03/06 12:06:34;;;;;;;;;;;;;;;24.98;16.65;91326.88;2061963;69;20437;-76
2023/03/06 12:09:03;;;;;;;;;;;;;;;20.71;20.89;91320.19;2062595;69;20090;-74
2023/03/06 12:12:02;;;;;;;;;;;;;;;27.70;16.97;91319.47;2062066;69;20053;-74
2023/03/06 12:14:35;;;;;;;;;;;;;;;23.94;17.88;91307.31;2057918;69;20057;-75
2023/03/06 12:17:02;;;;;;;;;;;;;;;26.32;16.93;91312.38;2061913;69;20450;-75
2023/03/06 12:19:43;;;;;;;;;;;;;;;28.81;15.46;91311.47;2062116;69;20115;-75
2023/03/06 12:22:38;;;;;;;;;;;;;;;27.67;15.00;91302.94;2061905;69;20054;-75
2023/03/06 12:25:24;;;;;;;;;;;;;;;24.67;17.22;91288.47;2060292;69;20137;-76
2023/03/06 12:28:09;;;;;;;;;;;;;;;24.26;17.55;91289.69;2061899;69;20065;-75
2023/03/06 12:30:48;;;;;;;;;;;;;;;24.44;16.48;91288.06;2061989;69;20045;-76
2023/03/06 12:33:29;;;;;;;;;;;;;;;25.84;15.89;91274.38;2061837;69;20128;-75
2023/03/06 12:35:54;;;;;;;;;;;;;;;23.16;18.52;91267.09;2062048;69;20077;-76
2023/03/06 12:38:22;;;;;;;;;;;;;;;25.09;17.46;91273.44;2062728;69;20096;-77
2023/03/06 12:41:12;;;;;;;;;;;;;;;25.77;16.41;91270.16;2062362;69;20060;-76
2023/03/06 12:43:38;;;;;;;;;;;;;;;26.48;15.95;91259.44;2062048;69;20053;-76
2023/03/06 12:46:09;;;;;;;;;;;;;;;27.27;14.80;91256.94;2061952;69;20112;-78
2023/03/06 12:48:36;;;;;;;;;;;;;;;26.18;16.54;91251.38;2061851;69;20050;-76
2023/03/06 12:51:04;;;;;;;;;;;;;;;26.19;15.45;91253.50;2061909;69;20081;-77
2023/03/06 12:53:31;;;;;;;;;;;;;;;25.46;15.79;91252.69;2061462;69;20050;-76
2023/03/06 12:55:58;;;;;;;;;;;;;;;27.34;15.48;91252.44;2062091;69;20490;-76
2023/03/06 12:58:27;;;;;;;;;;;;;;;29.51;14.17;91247.03;2061914;69;20108;-77
2023/03/06 13:00:59;;;;;;;;;;;;;;;28.10;14.17;91236.03;2061968;69;20107;-76